Shao Shan 5 — VRKO9 — position and weather

sailwx.info

Track history (hours):
 
Tides and Currents Weather Stations Pressure Air Temp Water Temp Dewpoint Dewpoint Depression Visibility Wind Speed Wind Dir Waves Ship Positions

Shao Shan 5

Last reported at 2014-Dec-22 13:28 UTC. Time now 2014-Dec-23 04:26 UTC.
Position N 29°22' W 094°48'.

Length 225 m; draft 12.2 m.

Type: Cargo ship. MMSI: 477325700.

Date/timePositionNaut miles runAvg speedWind from/ knotsBaromVisibWave heightAir tempDewpointWater temp
2014-Dec-22 13:28N 29°22' W 094°48'1010.6
2014-Dec-22 12:33N 29°30' W 094°52'10 9.9
2014-Dec-22 11:33N 29°39' W 094°58'7 6.6
2014-Dec-22 10:33N 29°44' W 095°03'4 3.9
2014-Dec-22 09:32N 29°44' W 095°07'1 0.9
2014-Dec-22 08:18N 29°44' W 095°09'0 0.0
2014-Dec-22 07:33N 29°44' W 095°09'0 0.0
2014-Dec-22 06:33N 29°44' W 095°09'0 0.0
2014-Dec-22 05:33N 29°44' W 095°09'0 0.0
2014-Dec-22 04:33N 29°44' W 095°09'0 0.0
2014-Dec-22 03:33N 29°44' W 095°09'0 0.0
2014-Dec-22 02:33N 29°44' W 095°09'0 0.0
2014-Dec-22 01:30N 29°44' W 095°09'0 0.0
2014-Dec-21 22:18N 29°44' W 095°09'0 0.0
2014-Dec-21 21:33N 29°44' W 095°09'0 0.0
2014-Dec-21 20:33N 29°44' W 095°09'0 0.0
2014-Dec-21 19:33N 29°44' W 095°09'0 0.0
2014-Dec-21 18:33N 29°44' W 095°09'0 0.0
2014-Dec-21 17:33N 29°44' W 095°09'0 0.0
2014-Dec-21 16:30N 29°44' W 095°09'0 0.0
2014-Dec-21 15:33N 29°44' W 095°09'0 0.0
2014-Dec-21 14:33N 29°44' W 095°09'0 0.0
2014-Dec-21 13:33N 29°44' W 095°09'0 0.0
2014-Dec-21 12:33N 29°44' W 095°09'0 0.0
2014-Dec-21 11:30N 29°44' W 095°09'0 0.0
2014-Dec-21 10:33N 29°44' W 095°09'0 0.0
2014-Dec-21 09:27N 29°44' W 095°09'0 0.0
2014-Dec-21 08:30N 29°44' W 095°09'0 0.0
2014-Dec-21 07:33N 29°44' W 095°09'0 0.0
2014-Dec-21 06:33N 29°44' W 095°09'0 0.0
2014-Dec-21 05:33N 29°44' W 095°09'0 0.0
2014-Dec-21 04:24N 29°44' W 095°09'0 0.0
2014-Dec-21 03:21N 29°44' W 095°09'0 0.0
2014-Dec-21 02:24N 29°44' W 095°09'0 0.0
2014-Dec-21 01:33N 29°44' W 095°09'0 0.0
2014-Dec-21 00:24N 29°44' W 095°09'0 0.0
2014-Dec-20 23:27N 29°44' W 095°09'0 0.0
2014-Dec-20 22:30N 29°44' W 095°09'0 0.0
2014-Dec-20 21:33N 29°44' W 095°09'0 0.0
2014-Dec-20 20:33N 29°44' W 095°09'0 0.0
2014-Dec-20 19:30N 29°44' W 095°09'0 0.0
2014-Dec-20 18:33N 29°44' W 095°09'0 0.0
2014-Dec-20 17:30N 29°44' W 095°09'0 0.0
2014-Dec-20 16:33N 29°44' W 095°09'0 0.0
2014-Dec-20 15:33N 29°44' W 095°09'0 0.0
2014-Dec-20 14:30N 29°44' W 095°09'0 0.0
2014-Dec-20 13:33N 29°44' W 095°09'0 0.0
2014-Dec-20 12:30N 29°44' W 095°09'0 0.0
2014-Dec-20 11:30N 29°44' W 095°09'0 0.0
2014-Dec-20 10:33N 29°44' W 095°09'0 0.0
2014-Dec-20 08:30N 29°44' W 095°09'0 0.0
2014-Dec-20 07:30N 29°44' W 095°09'0 0.0
2014-Dec-20 06:33N 29°44' W 095°09'0 0.0
2014-Dec-20 05:30N 29°44' W 095°09'0 0.0
2014-Dec-20 04:24N 29°44' W 095°09'0 0.0
2014-Dec-20 03:30N 29°44' W 095°09'0 0.0
2014-Dec-20 02:21N 29°44' W 095°09'0 0.0
2014-Dec-20 01:33N 29°44' W 095°09'0 0.0
2014-Dec-20 00:33N 29°44' W 095°09'0 0.0
2014-Dec-19 23:21N 29°44' W 095°09'1 1.2
2014-Dec-19 22:33N 29°45' W 095°10'0 0.5
2014-Dec-19 21:31N 29°45' W 095°10'0 0.0
2014-Dec-19 20:28N 29°45' W 095°10'0 0.0
2014-Dec-19 19:22N 29°45' W 095°10'0 0.0
2014-Dec-19 18:28N 29°45' W 095°10'0 0.0
2014-Dec-19 17:31N 29°45' W 095°10'0 0.0
2014-Dec-19 16:28N 29°45' W 095°10'0 0.0
2014-Dec-19 15:31N 29°45' W 095°10'0 0.0
2014-Dec-19 14:31N 29°45' W 095°10'0 0.0
2014-Dec-19 13:22N 29°45' W 095°10'2 2.4
2014-Dec-19 12:33N 29°44' W 095°08'6 5.7
2014-Dec-19 11:33N 29°44' W 095°01'9 9.2
2014-Dec-19 10:33N 29°36' W 094°56'1211.7
2014-Dec-19 09:33N 29°25' W 094°50'  
Track history (hours):
 
Tides and Currents Weather Stations Pressure Air Temp Water Temp Dewpoint Dewpoint Depression Visibility Wind Speed Wind Dir Waves Ship Positions

Shao Shan 5

Last reported at 2014-Dec-22 13:28 UTC. Time now 2014-Dec-23 04:26 UTC.
Position N 29°22' W 094°48'.

Length 225 m; draft 12.2 m.

Type: Cargo ship. MMSI: 477325700.

Date/timePositionNaut miles runAvg speedWind from/ knotsBaromVisibWave heightAir tempDewpointWater temp
2014-Dec-22 13:28N 29°22' W 094°48'1010.6
2014-Dec-22 12:33N 29°30' W 094°52'10 9.9
2014-Dec-22 11:33N 29°39' W 094°58'7 6.6
2014-Dec-22 10:33N 29°44' W 095°03'4 3.9
2014-Dec-22 09:32N 29°44' W 095°07'1 0.9
2014-Dec-22 08:18N 29°44' W 095°09'0 0.0
2014-Dec-22 07:33N 29°44' W 095°09'0 0.0
2014-Dec-22 06:33N 29°44' W 095°09'0 0.0
2014-Dec-22 05:33N 29°44' W 095°09'0 0.0
2014-Dec-22 04:33N 29°44' W 095°09'0 0.0
2014-Dec-22 03:33N 29°44' W 095°09'0 0.0
2014-Dec-22 02:33N 29°44' W 095°09'0 0.0
2014-Dec-22 01:30N 29°44' W 095°09'0 0.0
2014-Dec-21 22:18N 29°44' W 095°09'0 0.0
2014-Dec-21 21:33N 29°44' W 095°09'0 0.0
2014-Dec-21 20:33N 29°44' W 095°09'0 0.0
2014-Dec-21 19:33N 29°44' W 095°09'0 0.0
2014-Dec-21 18:33N 29°44' W 095°09'0 0.0
2014-Dec-21 17:33N 29°44' W 095°09'0 0.0
2014-Dec-21 16:30N 29°44' W 095°09'0 0.0
2014-Dec-21 15:33N 29°44' W 095°09'0 0.0
2014-Dec-21 14:33N 29°44' W 095°09'0 0.0
2014-Dec-21 13:33N 29°44' W 095°09'0 0.0
2014-Dec-21 12:33N 29°44' W 095°09'0 0.0
2014-Dec-21 11:30N 29°44' W 095°09'0 0.0
2014-Dec-21 10:33N 29°44' W 095°09'0 0.0
2014-Dec-21 09:27N 29°44' W 095°09'0 0.0
2014-Dec-21 08:30N 29°44' W 095°09'0 0.0
2014-Dec-21 07:33N 29°44' W 095°09'0 0.0
2014-Dec-21 06:33N 29°44' W 095°09'0 0.0
2014-Dec-21 05:33N 29°44' W 095°09'0 0.0
2014-Dec-21 04:24N 29°44' W 095°09'0 0.0
2014-Dec-21 03:21N 29°44' W 095°09'0 0.0
2014-Dec-21 02:24N 29°44' W 095°09'0 0.0
2014-Dec-21 01:33N 29°44' W 095°09'0 0.0
2014-Dec-21 00:24N 29°44' W 095°09'0 0.0
2014-Dec-20 23:27N 29°44' W 095°09'0 0.0
2014-Dec-20 22:30N 29°44' W 095°09'0 0.0
2014-Dec-20 21:33N 29°44' W 095°09'0 0.0
2014-Dec-20 20:33N 29°44' W 095°09'0 0.0
2014-Dec-20 19:30N 29°44' W 095°09'0 0.0
2014-Dec-20 18:33N 29°44' W 095°09'0 0.0
2014-Dec-20 17:30N 29°44' W 095°09'0 0.0
2014-Dec-20 16:33N 29°44' W 095°09'0 0.0
2014-Dec-20 15:33N 29°44' W 095°09'0 0.0
2014-Dec-20 14:30N 29°44' W 095°09'0 0.0
2014-Dec-20 13:33N 29°44' W 095°09'0 0.0
2014-Dec-20 12:30N 29°44' W 095°09'0 0.0
2014-Dec-20 11:30N 29°44' W 095°09'0 0.0
2014-Dec-20 10:33N 29°44' W 095°09'0 0.0
2014-Dec-20 08:30N 29°44' W 095°09'0 0.0
2014-Dec-20 07:30N 29°44' W 095°09'0 0.0
2014-Dec-20 06:33N 29°44' W 095°09'0 0.0
2014-Dec-20 05:30N 29°44' W 095°09'0 0.0
2014-Dec-20 04:24N 29°44' W 095°09'0 0.0
2014-Dec-20 03:30N 29°44' W 095°09'0 0.0
2014-Dec-20 02:21N 29°44' W 095°09'0 0.0
2014-Dec-20 01:33N 29°44' W 095°09'0 0.0
2014-Dec-20 00:33N 29°44' W 095°09'0 0.0
2014-Dec-19 23:21N 29°44' W 095°09'1 1.2
2014-Dec-19 22:33N 29°45' W 095°10'0 0.5
2014-Dec-19 21:31N 29°45' W 095°10'0 0.0
2014-Dec-19 20:28N 29°45' W 095°10'0 0.0
2014-Dec-19 19:22N 29°45' W 095°10'0 0.0
2014-Dec-19 18:28N 29°45' W 095°10'0 0.0
2014-Dec-19 17:31N 29°45' W 095°10'0 0.0
2014-Dec-19 16:28N 29°45' W 095°10'0 0.0
2014-Dec-19 15:31N 29°45' W 095°10'0 0.0
2014-Dec-19 14:31N 29°45' W 095°10'0 0.0
2014-Dec-19 13:22N 29°45' W 095°10'2 2.4
2014-Dec-19 12:33N 29°44' W 095°08'6 5.7
2014-Dec-19 11:33N 29°44' W 095°01'9 9.2
2014-Dec-19 10:33N 29°36' W 094°56'1211.7
2014-Dec-19 09:33N 29°25' W 094°50'  

Dump ship's entire track history